Saturday, January 20, 2018, 9:57 AM EST
Back to Local

KMSS, Massena International -richards Fld

Location: Massena, NY, United States Lat: 44.933
Local Time: 9:57 AM EST (14:57 GMT) Lon: -74.85
Time Zone: US/Eastern Elev: 213 ft

Show me the last for .
Show Decoded

2018-01-20 08:53 METAR KMSS 201353Z AUTO 23018G32KT 10SM CLR 04/M02 A2965 RMK AO2 PK WND
                 21032/1344 SLP046 T00391017 =
2018-01-20 07:53 METAR KMSS 201253Z AUTO 23020G30KT 10SM FEW039 04/M02 A2962 RMK AO2 PK WND
                 23033/1202 SLP036 T00391017 =
2018-01-20 06:53 METAR KMSS 201153Z AUTO 23021G30KT 10SM SCT120 04/M02 A2960 RMK AO2 PK WND
                 22034/1115 SLP028 70001 T00391017 10050 20028 53023 =
2018-01-20 05:53 METAR KMSS 201053Z AUTO 23021G34KT 10SM SCT041 SCT120 04/M02 A2957 RMK AO2 PK
                 WND 21034/1021 SLP018 T00441022 =
2018-01-20 04:53 METAR KMSS 200953Z AUTO 23024G31KT 10SM CLR 04/M03 A2955 RMK AO2 PK WND
                 22040/0906 SLP010 T00441033 =
2018-01-20 03:53 METAR KMSS 200853Z AUTO 22021G30KT 10SM BKN110 04/M03 A2953 RMK AO2 PK WND
                 22030/0853 SLP004 T00441033 58024 =
2018-01-20 01:53 METAR KMSS 200653Z AUTO 22017KT 10SM SCT110 03/M04 A2959 RMK AO2 SLP024
                 T00331039 =
2018-01-20 00:53 METAR KMSS 200553Z AUTO 22015G24KT 10SM OVC085 03/M04 A2960 RMK AO2 RAB0456E06
                 SLP028 P0001 60001 T00281039 10028 21022 56040 =
2018-01-19 23:53 METAR KMSS 200453Z AUTO 22014KT 10SM BKN070 02/M04 A2964 RMK AO2 SLP043
                 T00221044 400221044 =
2018-01-19 22:53 METAR KMSS 200353Z AUTO 20012KT 10SM CLR 00/M06 A2966 RMK AO2 SLP050 T00001056 =
2018-01-19 21:53 METAR KMSS 200253Z AUTO 21008KT 10SM BKN080 M01/M06 A2972 RMK AO2 SLP070
                 T10061056 56030 =
2018-01-19 20:53 METAR KMSS 200153Z AUTO 20009KT 10SM SCT110 M02/M06 A2974 RMK AO2 SLP078
                 T10171056 =
2018-01-19 19:53 METAR KMSS 200053Z AUTO 20011KT 10SM CLR M02/M04 A2977 RMK AO2 SLP087 T10171044
                 =
2018-01-19 18:53 METAR KMSS 192353Z AUTO 20010KT 10SM SCT038 BKN120 M01/M04 A2981 RMK AO2 SLP100
                 T10111039 11006 21011 56006 =
2018-01-19 18:18 METAR KMSS 192318Z AUTO 21012KT 10SM SCT023 OVC039 M01/M03 A2982 RMK AO2
                 T10061033 =
2018-01-19 17:53 METAR KMSS 192253Z AUTO 21012KT 10SM OVC022 M01/M03 A2981 RMK AO2 SLP101
                 T10061033 =
2018-01-19 16:53 METAR KMSS 192153Z AUTO 21012G20KT 8SM SCT017 BKN022 OVC039 M01/M03 A2981 RMK
                 AO2 SLP102 T10061028 =
2018-01-19 16:33 METAR KMSS 192133Z AUTO 22014KT 7SM OVC016 M01/M03 A2982 RMK AO2 T10061028 =
2018-01-19 15:53 METAR KMSS 192053Z AUTO 21012KT 6SM BR OVC011 M01/M02 A2983 RMK AO2 SLP106
                 T10061022 56012 =
2018-01-19 14:53 METAR KMSS 191953Z AUTO 21012KT 5SM BR OVC011 M01/M03 A2983 RMK AO2 SLP107
                 T10111028 =
2018-01-19 14:11 METAR KMSS 191911Z AUTO 21009KT 6SM BR OVC013 M01/M03 A2985 RMK AO2 T10111028 =
2018-01-19 13:53 METAR KMSS 191853Z AUTO 23013KT 6SM BR OVC015 M01/M03 A2986 RMK AO2 SLP116
                 T10111033 =
2018-01-19 12:53 METAR KMSS 191753Z AUTO 22012KT 7SM SCT018 OVC026 M01/M04 A2986 RMK AO2 SLP119
                 T10111044 11011 21033 58012 =
2018-01-19 12:39 METAR KMSS 191739Z AUTO 22009KT 7SM BKN026 OVC034 M02/M04 A2986 RMK AO2
                 T10171044 =
2018-01-19 11:53 METAR KMSS 191653Z AUTO 22013KT 8SM OVC034 M02/M05 A2988 RMK AO2 SLP124
                 T10171050 =
2018-01-19 10:53 METAR KMSS 191553Z AUTO 21012KT 8SM OVC031 M02/M06 A2990 RMK AO2 SLP130
                 T10221056 =

Support USWX by starting your Amazon purchase here.